Time;durP1;ratioP1;P1;durP2;ratioP2;P2;SDS_P1;SDS_P2;PMS_P1;PMS_P2;Temp;Humidity;BMP_temperature;BMP_pressure;BME280_temperature;BME280_humidity;BME280_pressure;Samples;Min_cycle;Max_cycle;Signal;HPM_P1;HPM_P2
2023/11/13 00:02:04;;;;;;;;;;;;;;;;;;5031285;28;19924;-87
2023/11/13 00:04:29;;;;;;;;;;;;;;;;;;5041634;28;20588;-87
2023/11/13 00:06:55;;;;;;;;;;;;;;;;;;5041525;28;19976;-87
2023/11/13 00:09:20;;;;;;;;;;;;;;;;;;5048766;28;19972;-87
2023/11/13 00:11:45;;;;;;;;;;;;;;;;;;5042394;28;19928;-87
2023/11/13 00:14:10;;;;;;;;;;;;;;;;;;5038244;28;19917;-87
2023/11/13 00:16:36;;;;;;;;;;;;;;;;;;5027554;28;20299;-87
2023/11/13 00:19:01;;;;;;;;;;;;;;;;;;5024659;28;20024;-87
2023/11/13 00:21:26;;;;;;;;;;;;;;;;;;5017827;28;19918;-86
2023/11/13 00:23:51;;;;;;;;;;;;;;;;;;5020832;28;20030;-86
2023/11/13 00:26:18;;;;;;;;;;;;;;;;;;5017227;28;19983;-86
2023/11/13 00:28:43;;;;;;;;;;;;;;;;;;5017119;28;19933;-87
2023/11/13 00:31:08;;;;;;;;;;;;;;;;;;5031232;28;19917;-86
2023/11/13 00:33:33;;;;;;;;;;;;;;;;;;5029436;28;19929;-86
2023/11/13 00:35:58;;;;;;;;;;;;;;;;;;5027291;28;19936;-86
2023/11/13 00:38:23;;;;;;;;;;;;;;;;;;5025061;28;22166;-86
2023/11/13 00:40:49;;;;;;;;;;;;;;;;;;5023248;28;20008;-86
2023/11/13 00:43:14;;;;;;;;;;;;;;;;;;5029216;28;20444;-86
2023/11/13 00:45:39;;;;;;;;;;;;;;;;;;5027672;28;19959;-86
2023/11/13 00:48:04;;;;;;;;;;;;;;;;;;5025524;28;19921;-87
2023/11/13 00:50:29;;;;;;;;;;;;;;;;;;5018516;28;20385;-86
2023/11/13 00:52:54;;;;;;;;;;;;;;;;;;5010440;28;19975;-86
2023/11/13 00:55:20;;;;;;;;;;;;;;;;;;5020452;28;20069;-87
2023/11/13 00:57:45;;;;;;;;;;;;;;;;;;5043577;28;20371;-86
2023/11/13 01:00:11;;;;;;;;;;;;;;;;;;5021801;28;19979;-86
2023/11/13 01:02:36;;;;;;;;;;;;;;;;;;5028238;28;19928;-86
2023/11/13 01:05:02;;;;;;;;;;;;;;;;;;5025070;28;19964;-86
2023/11/13 01:07:27;;;;;;;;;;;;;;;;;;5033479;28;19928;-85
2023/11/13 01:09:52;;;;;;;;;;;;;;;;;;5032433;28;19928;-86
2023/11/13 01:12:19;;;;;;;;;;;;;;;;;;5025074;28;20007;-86
2023/11/13 01:14:44;;;;;;;;;;;;;;;;;;5033508;28;20485;-87
2023/11/13 01:17:09;;;;;;;;;;;;;;;;;;5037041;28;20390;-87
2023/11/13 01:19:34;;;;;;;;;;;;;;;;;;5035349;28;19917;-87
2023/11/13 01:21:59;;;;;;;;;;;;;;;;;;5034363;28;19917;-87
2023/11/13 01:24:25;;;;;;;;;;;;;;;;;;5033779;28;19917;-87
2023/11/13 01:26:50;;;;;;;;;;;;;;;;;;5041218;28;19925;-86
2023/11/13 01:29:15;;;;;;;;;;;;;;;;;;5032735;28;20008;-87
2023/11/13 01:31:40;;;;;;;;;;;;;;;;;;5034133;28;19924;-87
2023/11/13 01:34:05;;;;;;;;;;;;;;;;;;5041939;28;19928;-87
2023/11/13 01:36:31;;;;;;;;;;;;;;;;;;5040055;28;19972;-87
2023/11/13 01:38:56;;;;;;;;;;;;;;;;;;5030944;28;20398;-86
2023/11/13 01:41:21;;;;;;;;;;;;;;;;;;5033918;28;19928;-87
2023/11/13 01:43:46;;;;;;;;;;;;;;;;;;5034090;28;19929;-87
2023/11/13 01:46:11;;;;;;;;;;;;;;;;;;5028935;28;19921;-87
2023/11/13 01:48:36;;;;;;;;;;;;;;;;;;5033411;28;19928;-87
2023/11/13 01:51:03;;;;;;;;;;;;;;;;;;5030918;28;19921;-86
2023/11/13 01:53:28;;;;;;;;;;;;;;;;;;5033931;28;19924;-87
2023/11/13 01:55:53;;;;;;;;;;;;;;;;;;5033535;28;20011;-87
2023/11/13 01:58:18;;;;;;;;;;;;;;;;;;5032495;28;19924;-87
2023/11/13 02:00:43;;;;;;;;;;;;;;;;;;5031635;28;19928;-87
2023/11/13 02:03:08;;;;;;;;;;;;;;;;;;5032364;28;20393;-87
2023/11/13 02:05:33;;;;;;;;;;;;;;;;;;5032289;28;20456;-87
2023/11/13 02:07:58;;;;;;;;;;;;;;;;;;5032671;28;19921;-87
2023/11/13 02:10:25;;;;;;;;;;;;;;;;;;5031563;28;19921;-87
2023/11/13 02:12:50;;;;;;;;;;;;;;;;;;5032952;28;19921;-87
2023/11/13 02:15:15;;;;;;;;;;;;;;;;;;5024615;28;19932;-87
2023/11/13 02:17:40;;;;;;;;;;;;;;;;;;5027200;28;19997;-87
2023/11/13 02:20:05;;;;;;;;;;;;;;;;;;5023787;28;19928;-87
2023/11/13 02:22:30;;;;;;;;;;;;;;;;;;5015376;28;19924;-87
2023/11/13 02:24:55;;;;;;;;;;;;;;;;;;5013874;28;19917;-87
2023/11/13 02:27:21;;;;;;;;;;;;;;;;;;5024149;28;20429;-87
2023/11/13 02:29:46;;;;;;;;;;;;;;;;;;5037193;28;19929;-86
2023/11/13 02:32:11;;;;;;;;;;;;;;;;;;5040156;28;20452;-87
2023/11/13 02:34:36;;;;;;;;;;;;;;;;;;5040939;28;19996;-87
2023/11/13 02:37:02;;;;;;;;;;;;;;;;;;5041275;28;19925;-87
2023/11/13 02:39:27;;;;;;;;;;;;;;;;;;5032841;28;20158;-88
2023/11/13 02:41:55;;;;;;;;;;;;;;;;;;5027371;28;20450;-87
2023/11/13 02:44:20;;;;;;;;;;;;;;;;;;5035655;28;20036;-87
2023/11/13 02:46:45;;;;;;;;;;;;;;;;;;5033827;28;19952;-87
2023/11/13 02:49:11;;;;;;;;;;;;;;;;;;5022756;28;20268;-87
2023/11/13 02:51:36;;;;;;;;;;;;;;;;;;5029777;28;20387;-87
2023/11/13 02:54:01;;;;;;;;;;;;;;;;;;5013517;28;19918;-87
2023/11/13 02:56:26;;;;;;;;;;;;;;;;;;5012692;28;19933;-87
2023/11/13 02:58:51;;;;;;;;;;;;;;;;;;5028229;28;19943;-88
2023/11/13 03:01:17;;;;;;;;;;;;;;;;;;5035646;28;19947;-87
2023/11/13 03:03:42;;;;;;;;;;;;;;;;;;5050955;28;19927;-87
2023/11/13 03:06:07;;;;;;;;;;;;;;;;;;5034470;28;19917;-88
2023/11/13 03:08:32;;;;;;;;;;;;;;;;;;5032931;28;19964;-88
2023/11/13 03:10:57;;;;;;;;;;;;;;;;;;5014763;28;19960;-87
2023/11/13 03:13:23;;;;;;;;;;;;;;;;;;5021935;28;20351;-87
2023/11/13 03:15:48;;;;;;;;;;;;;;;;;;5033810;28;19921;-88
2023/11/13 03:18:14;;;;;;;;;;;;;;;;;;5031121;28;19968;-88
2023/11/13 03:20:40;;;;;;;;;;;;;;;;;;5025147;28;19999;-87
2023/11/13 03:23:05;;;;;;;;;;;;;;;;;;5048021;28;19964;-86
2023/11/13 03:25:30;;;;;;;;;;;;;;;;;;5024753;28;19960;-87
2023/11/13 03:27:55;;;;;;;;;;;;;;;;;;5032538;28;19927;-87
2023/11/13 03:30:20;;;;;;;;;;;;;;;;;;5032910;28;19924;-87
2023/11/13 03:32:45;;;;;;;;;;;;;;;;;;5033054;28;19985;-87
2023/11/13 03:35:12;;;;;;;;;;;;;;;;;;5034288;28;19921;-87
2023/11/13 03:37:38;;;;;;;;;;;;;;;;;;5034720;28;20290;-87
2023/11/13 03:40:03;;;;;;;;;;;;;;;;;;5032813;28;19917;-87
2023/11/13 03:42:28;;;;;;;;;;;;;;;;;;5033258;28;19925;-87
2023/11/13 03:44:53;;;;;;;;;;;;;;;;;;5032832;28;19986;-87
2023/11/13 03:47:18;;;;;;;;;;;;;;;;;;5032942;28;19917;-86
2023/11/13 03:49:43;;;;;;;;;;;;;;;;;;5034495;28;19917;-86
2023/11/13 03:52:13;;;;;;;;;;;;;;;;;;5033823;28;19940;-85
2023/11/13 03:54:38;;;;;;;;;;;;;;;;;;5036072;28;19979;-87
2023/11/13 03:57:04;;;;;;;;;;;;;;;;;;5033870;28;19917;-87
2023/11/13 03:59:29;;;;;;;;;;;;;;;;;;5016219;28;19918;-87
2023/11/13 04:01:54;;;;;;;;;;;;;;;;;;5035517;28;19921;-87
2023/11/13 04:04:19;;;;;;;;;;;;;;;;;;5033608;28;19917;-86
2023/11/13 04:06:44;;;;;;;;;;;;;;;;;;5034937;28;19917;-86
2023/11/13 04:09:10;;;;;;;;;;;;;;;;;;5036054;28;19917;-86
2023/11/13 04:11:35;;;;;;;;;;;;;;;;;;5034431;28;19929;-86
2023/11/13 04:14:01;;;;;;;;;;;;;;;;;;5032591;28;19924;-87
2023/11/13 04:16:26;;;;;;;;;;;;;;;;;;5030758;28;19927;-87
2023/11/13 04:18:51;;;;;;;;;;;;;;;;;;5032045;28;19925;-87
2023/11/13 04:21:16;;;;;;;;;;;;;;;;;;5017110;28;20073;-87
2023/11/13 04:23:41;;;;;;;;;;;;;;;;;;5013057;28;19921;-86
2023/11/13 04:26:08;;;;;;;;;;;;;;;;;;5012343;28;19929;-87
2023/11/13 04:28:34;;;;;;;;;;;;;;;;;;5021948;28;19928;-87
2023/11/13 04:31:01;;;;;;;;;;;;;;;;;;5021134;28;19921;-86
2023/11/13 04:33:26;;;;;;;;;;;;;;;;;;5031280;28;19917;-87
2023/11/13 04:35:51;;;;;;;;;;;;;;;;;;5023883;28;20052;-87
2023/11/13 04:38:16;;;;;;;;;;;;;;;;;;5032072;28;20412;-87
2023/11/13 04:40:42;;;;;;;;;;;;;;;;;;5038219;28;19971;-87
2023/11/13 04:43:07;;;;;;;;;;;;;;;;;;5037966;28;20022;-86
2023/11/13 04:45:32;;;;;;;;;;;;;;;;;;5031073;28;19928;-87
2023/11/13 04:47:57;;;;;;;;;;;;;;;;;;5031380;28;19921;-85
2023/11/13 04:50:23;;;;;;;;;;;;;;;;;;5023064;28;19921;-86
2023/11/13 04:52:48;;;;;;;;;;;;;;;;;;5018539;28;19921;-87
2023/11/13 04:55:13;;;;;;;;;;;;;;;;;;5019831;28;19949;-87
2023/11/13 04:57:38;;;;;;;;;;;;;;;;;;5029008;28;20023;-86
2023/11/13 05:00:05;;;;;;;;;;;;;;;;;;5033290;28;20329;-86
2023/11/13 05:02:30;;;;;;;;;;;;;;;;;;5039499;28;19917;-85
2023/11/13 05:04:55;;;;;;;;;;;;;;;;;;5039133;28;19917;-85
2023/11/13 05:07:20;;;;;;;;;;;;;;;;;;5039513;28;19927;-86
2023/11/13 05:09:45;;;;;;;;;;;;;;;;;;5034390;28;19929;-86
2023/11/13 05:12:11;;;;;;;;;;;;;;;;;;5037977;28;20290;-87
2023/11/13 05:14:36;;;;;;;;;;;;;;;;;;5037439;28;19928;-85
2023/11/13 05:17:02;;;;;;;;;;;;;;;;;;5029179;28;19968;-86
2023/11/13 05:19:27;;;;;;;;;;;;;;;;;;5035851;28;19928;-86
2023/11/13 05:21:52;;;;;;;;;;;;;;;;;;5035094;28;20012;-86
2023/11/13 05:24:17;;;;;;;;;;;;;;;;;;5027427;28;19917;-85
2023/11/13 05:26:43;;;;;;;;;;;;;;;;;;5039161;28;19921;-86
2023/11/13 05:29:08;;;;;;;;;;;;;;;;;;5033121;28;19967;-86
2023/11/13 05:31:33;;;;;;;;;;;;;;;;;;5035825;28;19917;-86
2023/11/13 05:33:58;;;;;;;;;;;;;;;;;;5034969;28;19917;-86
2023/11/13 05:36:23;;;;;;;;;;;;;;;;;;5034438;28;19928;-86
2023/11/13 05:38:48;;;;;;;;;;;;;;;;;;5039792;28;20004;-86
2023/11/13 05:41:13;;;;;;;;;;;;;;;;;;5050245;28;19921;-86
2023/11/13 05:43:38;;;;;;;;;;;;;;;;;;5023124;28;19918;-85
2023/11/13 05:46:03;;;;;;;;;;;;;;;;;;5035329;28;19917;-86
2023/11/13 05:48:28;;;;;;;;;;;;;;;;;;5027897;28;19944;-85
2023/11/13 05:50:54;;;;;;;;;;;;;;;;;;5024914;28;20379;-87
2023/11/13 05:53:19;;;;;;;;;;;;;;;;;;5017269;28;19921;-85
2023/11/13 05:55:44;;;;;;;;;;;;;;;;;;5031951;28;19921;-86
2023/11/13 05:58:09;;;;;;;;;;;;;;;;;;5026850;28;19917;-86
2023/11/13 06:00:34;;;;;;;;;;;;;;;;;;5038106;28;20347;-85
2023/11/13 06:02:59;;;;;;;;;;;;;;;;;;5039929;28;20004;-86
2023/11/13 06:05:25;;;;;;;;;;;;;;;;;;5039520;28;19917;-86
2023/11/13 06:07:50;;;;;;;;;;;;;;;;;;5046265;28;19940;-88
2023/11/13 06:10:15;;;;;;;;;;;;;;;;;;5043265;28;19917;-85
2023/11/13 06:12:40;;;;;;;;;;;;;;;;;;5040074;28;19927;-86
2023/11/13 06:15:05;;;;;;;;;;;;;;;;;;5030948;28;20180;-85
2023/11/13 06:17:30;;;;;;;;;;;;;;;;;;5020993;28;19952;-85
2023/11/13 06:19:55;;;;;;;;;;;;;;;;;;5016872;28;19948;-87
2023/11/13 06:22:21;;;;;;;;;;;;;;;;;;5016988;28;19968;-86
2023/11/13 06:24:46;;;;;;;;;;;;;;;;;;5018409;28;19922;-86
2023/11/13 06:27:11;;;;;;;;;;;;;;;;;;5018296;28;19918;-86
2023/11/13 06:29:36;;;;;;;;;;;;;;;;;;5016547;28;19925;-84
2023/11/13 06:32:05;;;;;;;;;;;;;;;;;;5018744;28;19956;-86
2023/11/13 06:34:30;;;;;;;;;;;;;;;;;;5017968;28;20001;-84
2023/11/13 06:36:55;;;;;;;;;;;;;;;;;;5026700;28;19944;-84
2023/11/13 06:39:20;;;;;;;;;;;;;;;;;;5025948;28;19968;-84
2023/11/13 06:41:45;;;;;;;;;;;;;;;;;;5031744;28;19924;-86
2023/11/13 06:44:10;;;;;;;;;;;;;;;;;;5033770;28;19921;-86
2023/11/13 06:46:36;;;;;;;;;;;;;;;;;;5027729;28;19921;-84
2023/11/13 06:49:01;;;;;;;;;;;;;;;;;;5031630;28;20362;-86
2023/11/13 06:51:26;;;;;;;;;;;;;;;;;;5034735;28;20343;-85
2023/11/13 06:53:52;;;;;;;;;;;;;;;;;;5033911;28;19918;-86
2023/11/13 06:56:17;;;;;;;;;;;;;;;;;;5034617;28;20306;-85
2023/11/13 06:58:42;;;;;;;;;;;;;;;;;;5025834;28;20112;-85
2023/11/13 07:01:07;;;;;;;;;;;;;;;;;;5027726;28;19932;-86
2023/11/13 07:03:32;;;;;;;;;;;;;;;;;;5025690;28;19918;-86
2023/11/13 07:05:58;;;;;;;;;;;;;;;;;;5026996;28;19922;-85
2023/11/13 07:08:23;;;;;;;;;;;;;;;;;;5027525;28;19956;-85
2023/11/13 07:10:50;;;;;;;;;;;;;;;;;;5022342;28;21122;-85
2023/11/13 07:13:15;;;;;;;;;;;;;;;;;;5029699;28;20329;-85
2023/11/13 07:15:41;;;;;;;;;;;;;;;;;;5021655;28;19936;-85
2023/11/13 07:18:06;;;;;;;;;;;;;;;;;;5026208;28;20445;-86
2023/11/13 07:20:32;;;;;;;;;;;;;;;;;;5030963;28;19932;-85
2023/11/13 07:22:57;;;;;;;;;;;;;;;;;;5027050;28;19925;-85
2023/11/13 07:25:22;;;;;;;;;;;;;;;;;;5023954;28;19922;-86
2023/11/13 07:27:48;;;;;;;;;;;;;;;;;;5018469;28;19939;-85
2023/11/13 07:30:13;;;;;;;;;;;;;;;;;;5047676;28;19924;-86
2023/11/13 07:32:38;;;;;;;;;;;;;;;;;;5046855;28;19921;-86
2023/11/13 07:35:03;;;;;;;;;;;;;;;;;;5015027;28;19930;-86
2023/11/13 07:37:30;;;;;;;;;;;;;;;;;;5022965;28;20349;-86
2023/11/13 07:39:56;;;;;;;;;;;;;;;;;;5035174;28;19976;-86
2023/11/13 07:42:22;;;;;;;;;;;;;;;;;;5034838;28;19932;-85
2023/11/13 07:44:50;;;;;;;;;;;;;;;;;;5031190;28;20398;-84
2023/11/13 07:47:15;;;;;;;;;;;;;;;;;;5021929;28;20175;-85
2023/11/13 07:49:43;;;;;;;;;;;;;;;;;;5038213;28;20318;-84
2023/11/13 07:52:09;;;;;;;;;;;;;;;;;;5027227;28;19923;-85
2023/11/13 07:54:34;;;;;;;;;;;;;;;;;;5035959;28;20064;-85
2023/11/13 07:57:00;;;;;;;;;;;;;;;;;;5042062;28;19961;-84
2023/11/13 07:59:25;;;;;;;;;;;;;;;;;;5030364;28;19921;-85
2023/11/13 08:01:51;;;;;;;;;;;;;;;;;;5033943;28;19921;-85
2023/11/13 08:04:16;;;;;;;;;;;;;;;;;;5039917;28;19975;-85
2023/11/13 08:06:41;;;;;;;;;;;;;;;;;;5048976;28;19917;-85
2023/11/13 08:09:08;;;;;;;;;;;;;;;;;;5049724;28;19977;-85
2023/11/13 08:11:33;;;;;;;;;;;;;;;;;;5024448;28;19982;-86
2023/11/13 08:13:59;;;;;;;;;;;;;;;;;;5050812;28;19916;-85
2023/11/13 08:16:24;;;;;;;;;;;;;;;;;;5036962;28;20311;-85
2023/11/13 08:18:49;;;;;;;;;;;;;;;;;;5034339;28;19945;-84
2023/11/13 08:21:15;;;;;;;;;;;;;;;;;;5036161;28;19940;-85
2023/11/13 08:23:41;;;;;;;;;;;;;;;;;;5035161;28;19973;-85
2023/11/13 08:26:08;;;;;;;;;;;;;;;;;;5052210;28;20003;-85
2023/11/13 08:28:33;;;;;;;;;;;;;;;;;;5044020;28;19994;-85
2023/11/13 08:30:59;;;;;;;;;;;;;;;;;;5031051;28;19921;-85
2023/11/13 08:33:24;;;;;;;;;;;;;;;;;;5032307;28;19951;-85
2023/11/13 08:35:49;;;;;;;;;;;;;;;;;;5045477;28;20137;-86
2023/11/13 08:38:14;;;;;;;;;;;;;;;;;;5039813;28;19992;-86
2023/11/13 08:40:40;;;;;;;;;;;;;;;;;;5028781;28;19923;-85
2023/11/13 08:43:10;;;;;;;;;;;;;;;;;;5032510;28;19982;-85
2023/11/13 08:45:37;;;;;;;;;;;;;;;;;;5030187;28;19921;-85
2023/11/13 08:48:03;;;;;;;;;;;;;;;;;;5037333;28;19991;-86
2023/11/13 08:50:28;;;;;;;;;;;;;;;;;;5040059;28;19917;-86
2023/11/13 08:52:54;;;;;;;;;;;;;;;;;;5043044;28;20377;-86
2023/11/13 08:55:19;;;;;;;;;;;;;;;;;;5035703;28;19932;-86
2023/11/13 08:57:44;;;;;;;;;;;;;;;;;;5036577;28;19964;-86
2023/11/13 09:00:14;;;;;;;;;;;;;;;;;;5032379;28;19917;-86
2023/11/13 09:02:40;;;;;;;;;;;;;;;;;;5048402;28;19948;-86
2023/11/13 09:05:06;;;;;;;;;;;;;;;;;;5049305;28;19917;-86
2023/11/13 09:07:31;;;;;;;;;;;;;;;;;;5047793;28;19944;-85
2023/11/13 09:09:56;;;;;;;;;;;;;;;;;;5041185;28;19944;-85
2023/11/13 09:12:21;;;;;;;;;;;;;;;;;;5040043;28;19929;-85
2023/11/13 09:14:47;;;;;;;;;;;;;;;;;;5031929;28;19921;-85
2023/11/13 09:17:12;;;;;;;;;;;;;;;;;;5046043;28;20313;-85
2023/11/13 09:19:38;;;;;;;;;;;;;;;;;;5040829;28;20401;-85
2023/11/13 09:22:07;;;;;;;;;;;;;;;;;;5043654;28;19925;-85
2023/11/13 09:24:32;;;;;;;;;;;;;;;;;;5033748;28;19921;-85
2023/11/13 09:26:57;;;;;;;;;;;;;;;;;;5044260;28;19916;-85
2023/11/13 09:29:23;;;;;;;;;;;;;;;;;;5033751;28;19917;-84
2023/11/13 09:31:48;;;;;;;;;;;;;;;;;;5041081;28;19921;-85
2023/11/13 09:34:15;;;;;;;;;;;;;;;;;;5038467;28;19971;-86
2023/11/13 09:36:44;;;;;;;;;;;;;;;;;;5047097;28;19924;-86
2023/11/13 09:39:09;;;;;;;;;;;;;;;;;;5035374;28;19920;-86
2023/11/13 09:41:34;;;;;;;;;;;;;;;;;;5050401;28;19926;-85
2023/11/13 09:43:59;;;;;;;;;;;;;;;;;;5044254;28;20371;-85
2023/11/13 09:46:24;;;;;;;;;;;;;;;;;;5036054;28;19917;-85
2023/11/13 09:48:50;;;;;;;;;;;;;;;;;;5040812;28;19967;-86
2023/11/13 09:51:15;;;;;;;;;;;;;;;;;;5047303;28;19921;-85
2023/11/13 09:53:42;;;;;;;;;;;;;;;;;;5053919;28;19948;-85
2023/11/13 09:56:08;;;;;;;;;;;;;;;;;;5046198;28;19920;-85
2023/11/13 09:58:33;;;;;;;;;;;;;;;;;;5055078;28;19923;-85
2023/11/13 10:00:59;;;;;;;;;;;;;;;;;;5050283;28;20007;-86
2023/11/13 10:03:24;;;;;;;;;;;;;;;;;;5046793;28;19927;-86
2023/11/13 10:05:50;;;;;;;;;;;;;;;;;;5056776;28;19917;-85
2023/11/13 10:08:15;;;;;;;;;;;;;;;;;;5044446;28;19940;-85
2023/11/13 10:10:40;;;;;;;;;;;;;;;;;;5036626;28;20012;-86
2023/11/13 10:13:07;;;;;;;;;;;;;;;;;;5035763;28;19920;-86
2023/11/13 10:15:32;;;;;;;;;;;;;;;;;;5036814;28;19929;-86
2023/11/13 10:17:57;;;;;;;;;;;;;;;;;;5036292;28;19917;-84
2023/11/13 10:20:23;;;;;;;;;;;;;;;;;;5039593;28;19917;-84
2023/11/13 10:22:48;;;;;;;;;;;;;;;;;;5038612;28;19917;-84
2023/11/13 10:25:13;;;;;;;;;;;;;;;;;;5038106;28;19955;-83
2023/11/13 10:27:40;;;;;;;;;;;;;;;;;;5039535;28;19928;-85
2023/11/13 10:30:05;;;;;;;;;;;;;;;;;;5037018;28;20367;-85
2023/11/13 10:32:31;;;;;;;;;;;;;;;;;;5037757;28;19917;-84
2023/11/13 10:34:56;;;;;;;;;;;;;;;;;;5039972;28;20267;-85
2023/11/13 10:37:22;;;;;;;;;;;;;;;;;;5040597;28;19921;-84
2023/11/13 10:39:47;;;;;;;;;;;;;;;;;;5037537;28;19917;-84
2023/11/13 10:42:13;;;;;;;;;;;;;;;;;;5037437;28;19917;-84
2023/11/13 10:44:38;;;;;;;;;;;;;;;;;;5038235;28;20216;-86
2023/11/13 10:47:03;;;;;;;;;;;;;;;;;;5038015;28;19952;-84
2023/11/13 10:49:28;;;;;;;;;;;;;;;;;;5040898;28;20318;-86
2023/11/13 10:51:54;;;;;;;;;;;;;;;;;;5040608;28;19924;-84
2023/11/13 10:54:23;;;;;;;;;;;;;;;;;;5037265;28;19917;-85
2023/11/13 10:56:49;;;;;;;;;;;;;;;;;;5037352;28;19964;-84
2023/11/13 10:59:14;;;;;;;;;;;;;;;;;;5037193;28;19944;-85
2023/11/13 11:01:39;;;;;;;;;;;;;;;;;;5037655;28;19932;-84
2023/11/13 11:04:04;;;;;;;;;;;;;;;;;;5038252;28;19918;-86
2023/11/13 11:06:32;;;;;;;;;;;;;;;;;;5038886;28;19928;-84
2023/11/13 11:08:57;;;;;;;;;;;;;;;;;;5039977;28;19984;-84
2023/11/13 11:11:24;;;;;;;;;;;;;;;;;;5040067;28;19968;-84
2023/11/13 11:13:50;;;;;;;;;;;;;;;;;;5038916;28;20360;-84
2023/11/13 11:16:15;;;;;;;;;;;;;;;;;;5038753;28;19931;-85
2023/11/13 11:18:40;;;;;;;;;;;;;;;;;;5038397;28;20020;-84
2023/11/13 11:21:06;;;;;;;;;;;;;;;;;;5039372;28;19955;-85
2023/11/13 11:23:31;;;;;;;;;;;;;;;;;;5039323;28;19924;-86
2023/11/13 11:25:59;;;;;;;;;;;;;;;;;;5038916;28;19917;-85
2023/11/13 11:28:24;;;;;;;;;;;;;;;;;;5037243;28;20374;-85
2023/11/13 11:30:50;;;;;;;;;;;;;;;;;;5036522;28;20575;-86
2023/11/13 11:33:15;;;;;;;;;;;;;;;;;;5037517;28;20313;-85
2023/11/13 11:35:43;;;;;;;;;;;;;;;;;;5036722;28;19929;-85
2023/11/13 11:38:09;;;;;;;;;;;;;;;;;;5035668;28;19917;-86
2023/11/13 11:40:34;;;;;;;;;;;;;;;;;;5038666;28;19917;-84
2023/11/13 11:43:01;;;;;;;;;;;;;;;;;;5036949;28;20271;-84
2023/11/13 11:45:26;;;;;;;;;;;;;;;;;;5035662;28;19917;-83
2023/11/13 11:47:51;;;;;;;;;;;;;;;;;;5036359;28;19932;-84
2023/11/13 11:50:16;;;;;;;;;;;;;;;;;;5037700;28;19917;-83
2023/11/13 11:52:42;;;;;;;;;;;;;;;;;;5038616;28;19928;-84
2023/11/13 11:55:12;;;;;;;;;;;;;;;;;;5039063;28;19917;-85
2023/11/13 11:57:37;;;;;;;;;;;;;;;;;;5038911;28;19917;-85
2023/11/13 12:00:03;;;;;;;;;;;;;;;;;;5037280;28;19924;-84
2023/11/13 12:02:30;;;;;;;;;;;;;;;;;;5036882;28;19939;-84
2023/11/13 12:05:00;;;;;;;;;;;;;;;;;;5038444;28;19917;-84
2023/11/13 12:07:25;;;;;;;;;;;;;;;;;;5037531;28;19924;-83
2023/11/13 12:09:50;;;;;;;;;;;;;;;;;;5037524;28;19917;-84
2023/11/13 12:12:15;;;;;;;;;;;;;;;;;;5035961;28;19921;-84
2023/11/13 12:14:41;;;;;;;;;;;;;;;;;;5036145;28;20020;-86
2023/11/13 12:17:10;;;;;;;;;;;;;;;;;;5037757;28;20327;-84
2023/11/13 12:19:35;;;;;;;;;;;;;;;;;;5035734;28;20005;-85
2023/11/13 12:22:03;;;;;;;;;;;;;;;;;;5035011;28;19928;-85
2023/11/13 12:24:28;;;;;;;;;;;;;;;;;;5036924;28;19933;-83
2023/11/13 12:26:56;;;;;;;;;;;;;;;;;;5039278;28;19928;-83
2023/11/13 12:29:22;;;;;;;;;;;;;;;;;;5029462;28;19924;-83
2023/11/13 12:31:47;;;;;;;;;;;;;;;;;;5036862;28;19924;-84
2023/11/13 12:34:14;;;;;;;;;;;;;;;;;;5034307;28;19932;-84
2023/11/13 12:36:39;;;;;;;;;;;;;;;;;;5032362;28;19927;-85
2023/11/13 12:39:07;;;;;;;;;;;;;;;;;;5036774;28;19960;-84
2023/11/13 12:41:32;;;;;;;;;;;;;;;;;;5033693;28;19933;-83
2023/11/13 12:43:57;;;;;;;;;;;;;;;;;;5032712;28;20002;-82
2023/11/13 12:46:22;;;;;;;;;;;;;;;;;;5037633;28;19967;-84
2023/11/13 12:48:47;;;;;;;;;;;;;;;;;;5036600;28;19918;-84
2023/11/13 12:51:13;;;;;;;;;;;;;;;;;;5036822;28;19944;-85
2023/11/13 12:53:38;;;;;;;;;;;;;;;;;;5037480;28;20291;-85
2023/11/13 12:56:06;;;;;;;;;;;;;;;;;;5045660;28;19967;-83
2023/11/13 12:58:31;;;;;;;;;;;;;;;;;;5048083;28;19931;-83
2023/11/13 13:00:58;;;;;;;;;;;;;;;;;;5052900;28;19917;-83
2023/11/13 13:03:24;;;;;;;;;;;;;;;;;;5052220;28;20345;-85
2023/11/13 13:05:49;;;;;;;;;;;;;;;;;;5044378;28;19917;-85
2023/11/13 13:08:14;;;;;;;;;;;;;;;;;;5034370;28;20343;-85
2023/11/13 13:10:41;;;;;;;;;;;;;;;;;;5038652;28;19917;-85
2023/11/13 13:13:07;;;;;;;;;;;;;;;;;;5038322;28;19921;-85
2023/11/13 13:15:33;;;;;;;;;;;;;;;;;;5039606;28;19921;-85
2023/11/13 13:17:58;;;;;;;;;;;;;;;;;;5037845;28;19983;-85
2023/11/13 13:20:32;;;;;;;;;;;;;;;;;;5039574;28;19917;-85
2023/11/13 13:22:57;;;;;;;;;;;;;;;;;;5037570;28;20418;-85
2023/11/13 13:25:22;;;;;;;;;;;;;;;;;;5030987;28;19917;-85
2023/11/13 13:27:48;;;;;;;;;;;;;;;;;;5038479;28;19917;-84
2023/11/13 13:30:18;;;;;;;;;;;;;;;;;;5040278;28;19963;-84
2023/11/13 13:32:43;;;;;;;;;;;;;;;;;;5041741;28;19928;-84
2023/11/13 13:35:10;;;;;;;;;;;;;;;;;;5042067;28;19917;-85
2023/11/13 13:37:35;;;;;;;;;;;;;;;;;;5040451;28;19963;-84
2023/11/13 13:40:03;;;;;;;;;;;;;;;;;;5037121;28;19925;-84
2023/11/13 13:42:28;;;;;;;;;;;;;;;;;;5031148;28;19944;-85
2023/11/13 13:44:53;;;;;;;;;;;;;;;;;;5026315;28;20408;-84
2023/11/13 13:47:19;;;;;;;;;;;;;;;;;;5029004;28;19980;-85
2023/11/13 13:49:45;;;;;;;;;;;;;;;;;;5038827;28;19966;-85
2023/11/13 13:52:10;;;;;;;;;;;;;;;;;;5021255;28;20398;-84
2023/11/13 13:54:36;;;;;;;;;;;;;;;;;;5030362;28;19917;-84
2023/11/13 13:57:03;;;;;;;;;;;;;;;;;;5034504;28;19936;-84
2023/11/13 13:59:29;;;;;;;;;;;;;;;;;;5024454;28;20359;-84
2023/11/13 14:01:54;;;;;;;;;;;;;;;;;;5026373;28;19922;-84
2023/11/13 14:04:20;;;;;;;;;;;;;;;;;;5016941;28;19968;-85
2023/11/13 14:06:51;;;;;;;;;;;;;;;;;;5017696;28;19921;-84
2023/11/13 14:09:16;;;;;;;;;;;;;;;;;;5023784;28;20340;-84
2023/11/13 14:11:41;;;;;;;;;;;;;;;;;;5020830;28;19953;-84
2023/11/13 14:14:07;;;;;;;;;;;;;;;;;;5023705;28;20390;-85
2023/11/13 14:16:32;;;;;;;;;;;;;;;;;;5027081;28;19933;-84
2023/11/13 14:18:59;;;;;;;;;;;;;;;;;;5019648;28;19989;-85
2023/11/13 14:21:24;;;;;;;;;;;;;;;;;;5028383;28;19918;-85
2023/11/13 14:23:56;;;;;;;;;;;;;;;;;;5033361;28;19940;-85
2023/11/13 14:26:21;;;;;;;;;;;;;;;;;;5029402;28;19940;-86
2023/11/13 14:28:47;;;;;;;;;;;;;;;;;;5022359;28;20387;-84
2023/11/13 14:31:12;;;;;;;;;;;;;;;;;;5027336;28;19924;-85
2023/11/13 14:33:38;;;;;;;;;;;;;;;;;;5023140;28;19917;-85
2023/11/13 14:36:03;;;;;;;;;;;;;;;;;;5032894;28;19970;-85
2023/11/13 14:38:30;;;;;;;;;;;;;;;;;;5030448;28;20000;-85
2023/11/13 14:40:55;;;;;;;;;;;;;;;;;;5032864;28;19996;-85
2023/11/13 14:43:20;;;;;;;;;;;;;;;;;;5037493;28;20042;-85
2023/11/13 14:45:45;;;;;;;;;;;;;;;;;;5035298;28;19921;-84
2023/11/13 14:48:12;;;;;;;;;;;;;;;;;;5033262;28;20311;-85
2023/11/13 14:50:37;;;;;;;;;;;;;;;;;;5022422;28;20350;-83
2023/11/13 14:53:02;;;;;;;;;;;;;;;;;;5024817;28;19918;-85
2023/11/13 14:55:28;;;;;;;;;;;;;;;;;;5032021;28;20127;-84
2023/11/13 14:57:53;;;;;;;;;;;;;;;;;;5022439;28;19968;-85
2023/11/13 15:00:20;;;;;;;;;;;;;;;;;;5035459;28;19925;-86
2023/11/13 15:02:47;;;;;;;;;;;;;;;;;;5040175;28;19916;-85
2023/11/13 15:05:12;;;;;;;;;;;;;;;;;;5036716;28;20016;-86
2023/11/13 15:07:37;;;;;;;;;;;;;;;;;;5032525;28;19961;-85
2023/11/13 15:10:09;;;;;;;;;;;;;;;;;;5026353;28;19925;-86
2023/11/13 15:12:34;;;;;;;;;;;;;;;;;;5032374;28;19921;-86
2023/11/13 15:15:05;;;;;;;;;;;;;;;;;;5034070;28;19966;-86
2023/11/13 15:17:30;;;;;;;;;;;;;;;;;;5034335;28;19917;-86
2023/11/13 15:19:55;;;;;;;;;;;;;;;;;;5034932;28;20483;-85
2023/11/13 15:22:20;;;;;;;;;;;;;;;;;;5031657;28;19917;-86
2023/11/13 15:24:45;;;;;;;;;;;;;;;;;;5033482;28;19963;-86
2023/11/13 15:27:11;;;;;;;;;;;;;;;;;;5034831;28;19940;-86
2023/11/13 15:29:38;;;;;;;;;;;;;;;;;;5032821;28;20016;-86
2023/11/13 15:32:06;;;;;;;;;;;;;;;;;;5034718;28;20400;-86
2023/11/13 15:34:31;;;;;;;;;;;;;;;;;;5035878;28;19917;-86
2023/11/13 15:36:57;;;;;;;;;;;;;;;;;;5035831;28;19928;-86
2023/11/13 15:39:22;;;;;;;;;;;;;;;;;;5036026;28;19925;-86
2023/11/13 15:41:47;;;;;;;;;;;;;;;;;;5035708;28;19917;-86
2023/11/13 15:44:12;;;;;;;;;;;;;;;;;;5033843;28;19917;-85
2023/11/13 15:46:39;;;;;;;;;;;;;;;;;;5037587;28;19921;-86
2023/11/13 15:49:04;;;;;;;;;;;;;;;;;;5038276;28;19917;-86
2023/11/13 15:51:29;;;;;;;;;;;;;;;;;;5040296;28;19952;-85
2023/11/13 15:53:54;;;;;;;;;;;;;;;;;;5039431;28;19924;-86
2023/11/13 15:56:19;;;;;;;;;;;;;;;;;;5036367;28;19929;-86
2023/11/13 15:58:45;;;;;;;;;;;;;;;;;;5039105;28;19917;-85
2023/11/13 16:01:10;;;;;;;;;;;;;;;;;;5037675;28;20306;-86
2023/11/13 16:03:35;;;;;;;;;;;;;;;;;;5037614;28;19926;-86
2023/11/13 16:06:03;;;;;;;;;;;;;;;;;;5028683;28;19925;-85
2023/11/13 16:08:28;;;;;;;;;;;;;;;;;;5036424;28;19976;-86
2023/11/13 16:10:55;;;;;;;;;;;;;;;;;;5033421;28;20335;-86
2023/11/13 16:13:20;;;;;;;;;;;;;;;;;;5033528;28;19961;-85
2023/11/13 16:15:46;;;;;;;;;;;;;;;;;;5028372;28;19925;-86
2023/11/13 16:18:11;;;;;;;;;;;;;;;;;;5033704;28;19921;-87
2023/11/13 16:20:36;;;;;;;;;;;;;;;;;;5034619;28;19917;-86
2023/11/13 16:23:02;;;;;;;;;;;;;;;;;;5033927;28;19949;-86
2023/11/13 16:25:27;;;;;;;;;;;;;;;;;;5032668;28;19939;-86
2023/11/13 16:27:52;;;;;;;;;;;;;;;;;;5034516;28;19995;-86
2023/11/13 16:30:18;;;;;;;;;;;;;;;;;;5031641;28;20332;-86
2023/11/13 16:32:43;;;;;;;;;;;;;;;;;;5033495;28;19931;-86
2023/11/13 16:35:12;;;;;;;;;;;;;;;;;;5032939;28;19939;-85